Manchester-Boston Regional Airport

Airport
ICAO code: 
KMHT
Summary
ICAO Region: 
NAM
Territory: 
Location: 
Manchester, New Hampshire,
Serving: 
Manchester, New Hampshire
Coordinates: 
Aerial View: 
42° 55' 40.472" N, 71° 26' 18.607" W
Airport WX: 
Cumulonimbus
Metar
Observation
KMHT 040653Z 00000KT 10SM SCT200 M03/M11 A3001 RMK AO2 SLP182 T10281111
Station
Manchester, Manchester Airport
Date/Time
2021-12-04 06:53:00
Wind direction
Wind speed
00 kts
Lowest cloud amount
scattered clouds
Temperature
-2.8°C
Dew point
-11.1°C
Humidity
52%
Weather condition
n/a

Description

Manchester–Boston Regional Airport, commonly referred to simply as "Manchester Airport", is a public use airport located 5 km south of the central business district of Manchester, New Hampshire.

Climatology

Humid continental climate (Köppen climate classification Dfa) - characterized by four seasons: cold, windy, snowy winters, mild springs, hot, humid summers, and crisp and relatively short autumns. Precipitation reaches its lowest in January and February and peaks in summer and latter half of spring.

Runways

Designator Length Width Surface Rops
6/24 2088 46 ASP Yes/Yes
17/35 2819 46 ASP Yes/Yes
Airport map: 
Aerial View: 

SKYbrary Partners:

Safety knowledge contributed by: